Time,TemperatureF,DewpointF,PressureIn,WindDirection,WindDirectionDegrees,WindSpeedMPH,WindSpeedGustMPH,Humidity,HourlyPrecipIn,Conditions,Clouds,dailyrainin,SoftwareType,DateUTC
2013-04-08 07:02:00,34.0,33.0,-100.00,ENE,58,1.0,5.0,96,-99.99,,,-99.99,,2013-04-08 14:02:00,
2013-04-08 07:12:00,34.0,33.0,-100.00,ENE,58,1.0,5.0,96,-99.99,,,-99.99,,2013-04-08 14:12:00,
2013-04-08 08:02:00,35.0,33.0,-100.00,ENE,61,1.0,5.0,92,-99.99,,,-99.99,,2013-04-08 15:02:00,
2013-04-08 09:03:00,40.0,33.0,-100.00,East,99,3.0,8.0,75,-99.99,,,-99.99,,2013-04-08 16:03:00,
2013-04-08 09:13:00,40.0,33.0,-100.00,East,99,3.0,8.0,75,-99.99,,,-99.99,,2013-04-08 16:13:00,
2013-04-08 10:02:00,43.0,32.0,-100.00,SE,131,6.0,15.0,64,-99.99,,,-99.99,,2013-04-08 17:02:00,
2013-04-08 11:02:00,45.0,32.0,-100.00,SSE,152,7.0,15.0,60,-99.99,,,-99.99,,2013-04-08 18:02:00,
2013-04-08 11:12:00,45.0,32.0,-100.00,SSE,152,7.0,15.0,60,-99.99,,,-99.99,,2013-04-08 18:12:00,
2013-04-08 12:02:00,46.0,33.0,-100.00,ESE,114,2.0,7.0,60,-99.99,,,-99.99,,2013-04-08 19:02:00,
2013-04-08 12:10:00,50.0,33.0,-100.00,East,79,2.0,9.0,51,-99.99,,,-99.99,,2013-04-08 19:10:00,
2013-04-08 13:00:00,53.0,30.0,-100.00,East,96,3.0,8.0,41,-99.99,,,-99.99,,2013-04-08 20:00:00,
2013-04-08 13:02:00,50.0,33.0,-100.00,East,79,2.0,9.0,51,-99.99,,,-99.99,,2013-04-08 20:02:00,
2013-04-08 14:10:00,52.0,29.0,-100.00,ESE,106,5.0,14.0,40,-99.99,,,-99.99,,2013-04-08 21:10:00,
2013-04-08 15:02:00,52.0,29.0,-100.00,ESE,106,5.0,14.0,40,-99.99,,,-99.99,,2013-04-08 22:02:00,
2013-04-08 16:02:00,54.0,31.0,-100.00,ESE,106,5.0,14.0,41,-99.99,,,-99.99,,2013-04-08 23:02:00,
2013-04-08 17:20:00,51.0,31.0,-100.00,ESE,116,3.0,9.0,46,-99.99,,,-99.99,,2013-04-09 00:20:00,
2013-04-08 18:02:00,51.0,31.0,-100.00,ESE,116,3.0,9.0,46,-99.99,,,-99.99,,2013-04-09 01:02:00,
2013-04-08 18:10:00,49.0,32.0,-100.00,SE,127,6.0,13.0,51,-99.99,,,-99.99,,2013-04-09 01:10:00,
2013-04-08 18:12:00,51.0,31.0,-100.00,ESE,116,3.0,9.0,46,-99.99,,,-99.99,,2013-04-09 01:12:00,
2013-04-08 19:02:00,49.0,32.0,-100.00,SE,127,6.0,13.0,51,-99.99,,,-99.99,,2013-04-09 02:02:00,
2013-04-08 20:02:00,45.0,34.0,-100.00,NE,41,1.0,3.0,65,-99.99,,,-99.99,,2013-04-09 03:02:00,
2013-04-08 20:10:00,41.0,33.0,-100.00,East,95,0.0,1.0,72,-99.99,,,-99.99,,2013-04-09 03:10:00,
2013-04-08 20:12:00,45.0,34.0,-100.00,NE,41,1.0,3.0,65,-99.99,,,-99.99,,2013-04-09 03:12:00,
2013-04-08 21:02:00,41.0,33.0,-100.00,East,95,0.0,1.0,72,-99.99,,,-99.99,,2013-04-09 04:02:00,
2013-04-08 22:02:00,38.0,33.0,-100.00,NE,51,0.0,2.0,82,-99.99,,,-99.99,,2013-04-09 05:02:00,
2013-04-08 22:12:00,38.0,33.0,-100.00,NE,51,0.0,2.0,82,-99.99,,,-99.99,,2013-04-09 05:12:00,
2013-04-08 23:02:00,37.0,33.0,-100.00,ESE,120,1.0,2.0,85,-99.99,,,-99.99,,2013-04-09 06:02:00,